Terminal Aerodrome Forecast
Issued by NWS Charleston, WV

Current Version | Previous Version | Text Only | Print | Product List | Glossary Off
Versions: 1 2 3 4 5 6 7 8 9 10 11 12 13 14 15 16 17 18 19 20 21 22

000
FTUS41 KRLX 291724
TAFEKN
TAF
KEKN 291724Z 2918/3018 00000KT P6SM SHRA BKN040
     FM292300 VRB03KT P6SM OVC080
     FM300400 00000KT 5SM BR BKN080
     FM300800 00000KT 1SM BR SCT001 BKN080
     FM301300 00000KT 6SM BR FEW001 BKN070
     FM301500 31007KT P6SM BKN045=

USA.gov is the U.S. government's official web portal to all federal, state and local government web resources and services.